Time;durP1;ratioP1;P1;durP2;ratioP2;P2;SDS_P1;SDS_P2;PMS_P1;PMS_P2;Temp;Humidity;BMP_temperature;BMP_pressure;BME280_temperature;BME280_humidity;BME280_pressure;Samples;Min_cycle;Max_cycle;Signal;HPM_P1;HPM_P2
2021/04/29 00:00:53;;;;;;;21.95;15.38;;;13.30;99.90;;;13.53;58.17;100165.22;5074442;28;20041;-73
2021/04/29 00:03:20;;;;;;;19.38;14.60;;;13.20;99.90;;;13.56;58.13;100170.47;5074464;28;20048;-74
2021/04/29 00:05:49;;;;;;;16.98;14.73;;;13.20;99.90;;;13.61;57.86;100161.50;5074292;28;20044;-71
2021/04/29 00:08:24;;;;;;;23.52;15.07;;;13.20;99.90;;;13.53;58.17;100153.72;5074190;28;20048;-71
2021/04/29 00:10:51;;;;;;;18.42;14.88;;;13.20;99.90;;;13.48;58.05;100153.84;5074133;28;20052;-72
2021/04/29 00:13:19;;;;;;;20.13;15.35;;;13.10;99.90;;;13.55;58.66;100150.09;5074024;28;20048;-71
2021/04/29 00:15:47;;;;;;;20.00;15.43;;;13.10;99.90;;;13.43;58.63;100123.88;5073850;28;20090;-71
2021/04/29 00:18:15;;;;;;;22.73;15.43;;;13.20;99.90;;;13.56;58.77;100133.25;5073840;28;20044;-71
2021/04/29 00:20:44;;;;;;;25.20;15.27;;;13.20;99.90;;;13.58;58.60;100127.91;5074043;28;20071;-72
2021/04/29 00:23:13;;;;;;;20.67;16.13;;;13.20;99.90;;;13.42;59.93;100124.81;5072703;28;20048;-71
2021/04/29 00:25:40;;;;;;;23.27;16.65;;;13.10;99.90;;;13.45;60.30;100126.50;5106505;28;20444;-71
2021/04/29 00:28:08;;;;;;;19.63;16.10;;;13.10;99.90;;;13.39;59.91;100116.06;5073631;28;20041;-71
2021/04/29 00:30:35;;;;;;;26.13;17.08;;;13.10;99.90;;;13.19;61.11;100116.59;5073527;28;20040;-71
2021/04/29 00:33:02;;;;;;;20.80;16.38;;;12.90;99.90;;;13.18;61.86;100120.16;5072521;28;20052;-71
2021/04/29 00:35:30;;;;;;;23.20;16.48;;;12.80;99.90;;;12.98;61.98;100126.88;5073878;28;20090;-73
2021/04/29 00:37:57;;;;;;;24.10;16.45;;;12.70;99.90;;;12.97;61.92;100120.69;5073508;28;20459;-72
2021/04/29 00:40:26;;;;;;;21.00;16.48;;;12.60;99.90;;;12.84;62.16;100110.44;5073541;28;20040;-72
2021/04/29 00:42:53;;;;;;;22.10;16.33;;;12.60;99.90;;;12.87;62.29;100113.91;5073718;28;20048;-73
2021/04/29 00:45:21;;;;;;;21.98;16.58;;;12.50;99.90;;;12.76;62.53;100110.63;5073660;28;20098;-71
2021/04/29 00:47:50;;;;;;;20.33;15.85;;;12.50;99.90;;;12.70;62.46;100105.47;5073627;28;20052;-73
2021/04/29 00:50:23;;;;;;;19.48;15.05;;;12.50;99.90;;;12.69;62.81;100101.09;5089184;28;20084;-71
2021/04/29 00:52:51;;;;;;;23.50;17.13;;;12.40;99.90;;;12.57;62.88;100106.69;5071812;28;20164;-71
2021/04/29 00:55:18;;;;;;;19.83;15.25;;;12.40;99.90;;;12.48;62.92;100115.78;5073223;28;20044;-72
2021/04/29 00:57:46;;;;;;;24.55;16.83;;;12.20;99.90;;;12.33;63.50;100115.25;5073071;28;20055;-73
2021/04/29 01:00:18;;;;;;;23.80;16.20;;;12.10;99.90;;;12.36;63.59;100120.47;5073070;28;20071;-71
2021/04/29 01:02:51;;;;;;;26.45;16.27;;;12.10;99.90;;;12.22;64.00;100123.44;5073329;28;20044;-71
2021/04/29 01:05:22;;;;;;;22.98;17.15;;;12.00;99.90;;;12.16;63.96;100131.53;5071957;28;20056;-71
2021/04/29 01:07:56;;;;;;;23.58;16.30;;;12.00;99.90;;;11.86;64.41;100124.28;5073221;28;20041;-72
2021/04/29 01:10:28;;;;;;;22.23;16.58;;;11.90;99.90;;;11.92;64.90;100136.53;5073210;28;20044;-72
2021/04/29 01:13:06;;;;;;;22.80;16.80;;;11.70;99.90;;;11.89;65.08;100142.75;5088243;28;20048;-71
2021/04/29 01:15:34;;;;;;;23.63;16.10;;;11.60;99.90;;;11.64;66.43;100130.88;5071647;28;20041;-72
2021/04/29 01:18:02;;;;;;;26.52;17.30;;;11.50;99.90;;;11.52;66.96;100107.28;5072953;28;20048;-72
2021/04/29 01:20:37;;;;;;;30.65;17.75;;;11.40;99.90;;;11.53;67.44;100115.25;5071601;28;20059;-71
2021/04/29 01:23:14;;;;;;;26.73;17.58;;;11.40;99.90;;;11.63;68.39;100137.97;5072704;28;20049;-71
2021/04/29 01:25:44;;;;;;;28.88;18.30;;;11.40;99.90;;;11.70;68.47;100142.28;5072942;28;20048;-71
2021/04/29 01:28:13;;;;;;;34.35;19.33;;;11.40;99.90;;;11.51;69.50;100156.78;5072892;28;20048;-71
2021/04/29 01:30:42;;;;;;;26.88;19.48;;;11.20;99.90;;;11.84;69.63;100162.31;5072601;28;20090;-71
2021/04/29 01:33:09;;;;;;;32.92;19.20;;;11.50;99.90;;;11.60;71.18;100167.16;5072607;28;20041;-71
2021/04/29 01:35:37;;;;;;;26.80;17.65;;;11.30;99.90;;;11.47;71.78;100160.38;5072915;28;20041;-71
2021/04/29 01:38:05;;;;;;;33.28;17.52;;;11.10;99.90;;;11.50;72.47;100173.53;5072292;28;20040;-72
2021/04/29 01:40:33;;;;;;;34.65;18.40;;;11.10;99.90;;;11.62;73.22;100160.06;5072672;28;20447;-72
2021/04/29 01:43:00;;;;;;;34.70;17.88;;;11.20;99.90;;;11.35;74.53;100149.13;5072503;28;20125;-71
2021/04/29 01:45:29;;;;;;;35.28;18.08;;;11.10;99.90;;;11.61;74.74;100141.56;5072633;28;20068;-72
2021/04/29 01:47:57;;;;;;;35.92;18.05;;;11.30;99.90;;;11.60;74.69;100137.16;5072544;28;20151;-72
2021/04/29 01:50:24;;;;;;;32.30;19.70;;;11.30;99.90;;;11.61;74.34;100131.81;5072305;28;20444;-73
2021/04/29 01:52:52;;;;;;;37.90;18.73;;;11.30;99.90;;;11.45;74.62;100141.00;5072648;28;20478;-72
2021/04/29 01:55:21;;;;;;;29.38;19.17;;;11.20;99.90;;;11.62;74.34;100154.78;5072548;28;20040;-72
2021/04/29 01:57:48;;;;;;;34.65;18.75;;;11.30;99.90;;;11.74;74.03;100158.97;5071075;28;20409;-72
2021/04/29 02:00:17;;;;;;;31.73;18.50;;;11.40;99.90;;;11.69;74.12;100160.84;5072422;28;20073;-72
2021/04/29 02:02:45;;;;;;;35.00;18.23;;;11.40;99.90;;;11.65;74.26;100157.38;5072085;28;20048;-72
2021/04/29 02:05:13;;;;;;;42.22;18.33;;;11.30;99.90;;;11.53;74.87;100160.25;5071483;28;20474;-71
2021/04/29 02:07:40;;;;;;;34.92;18.65;;;11.30;99.90;;;11.65;74.34;100164.44;5072394;28;20048;-72
2021/04/29 02:10:09;;;;;;;31.77;18.83;;;11.30;99.90;;;11.26;76.22;100159.91;5072340;28;20041;-72
2021/04/29 02:12:41;;;;;;;35.88;19.13;;;11.00;99.90;;;11.14;76.59;100160.13;5072055;28;20454;-72
2021/04/29 02:15:11;;;;;;;30.08;18.67;;;10.90;99.90;;;11.07;77.06;100163.78;5072503;28;20044;-72
2021/04/29 02:17:46;;;;;;;34.35;20.23;;;10.80;99.90;;;11.27;76.96;100164.28;5087731;28;20494;-72
2021/04/29 02:20:16;;;;;;;37.55;21.00;;;10.90;99.90;;;11.42;76.83;100166.66;5072436;28;20118;-71
2021/04/29 02:22:45;;;;;;;42.67;20.52;;;11.10;99.90;;;11.44;76.71;100154.28;5070933;28;20064;-71
2021/04/29 02:25:14;;;;;;;30.10;20.02;;;11.20;99.90;;;11.33;77.33;100158.88;5072410;28;20044;-71
2021/04/29 02:27:42;;;;;;;38.05;20.92;;;11.10;99.90;;;11.06;77.76;100135.56;5071986;28;20066;-72
2021/04/29 02:30:13;;;;;;;33.20;20.98;;;11.00;99.90;;;11.42;77.50;100162.22;5071932;28;20400;-71
2021/04/29 02:32:41;;;;;;;37.83;20.88;;;11.10;99.90;;;11.13;78.05;100167.19;5071799;28;20040;-72
2021/04/29 02:35:14;;;;;;;41.95;20.48;;;10.90;99.90;;;11.41;77.83;100170.19;5072121;28;20044;-72
2021/04/29 02:37:44;;;;;;;35.65;21.27;;;11.10;99.90;;;11.58;77.46;100165.44;5072005;28;20070;-72
2021/04/29 02:40:14;;;;;;;36.55;21.08;;;11.30;99.90;;;11.53;77.54;100165.56;5072144;28;20045;-73
2021/04/29 02:43:02;;;;;;;40.38;20.90;;;11.20;99.90;;;11.48;77.93;100161.22;5071928;28;20064;-73
2021/04/29 02:45:29;;;;;;;34.03;20.58;;;11.20;99.90;;;11.52;77.74;100154.97;5071961;28;20043;-73
2021/04/29 02:47:57;;;;;;;37.80;21.50;;;11.30;99.90;;;11.65;77.68;100156.50;5070613;28;20061;-73
2021/04/29 02:50:26;;;;;;;38.35;21.65;;;11.40;99.90;;;11.71;77.37;100154.59;5070601;28;20391;-73
2021/04/29 02:52:56;;;;;;;46.00;23.92;;;11.40;99.90;;;11.55;78.22;100160.22;5087285;28;20437;-73
2021/04/29 02:55:24;;;;;;;41.13;21.48;;;11.30;99.90;;;11.65;77.80;100165.31;5070585;28;20456;-73
2021/04/29 02:58:00;;;;;;;38.20;22.48;;;11.40;99.90;;;11.41;78.45;100152.53;5071720;28;20091;-73
2021/04/29 03:00:29;;;;;;;39.97;21.95;;;11.20;99.90;;;11.37;78.90;100153.50;5071951;28;20037;-73
2021/04/29 03:02:57;;;;;;;40.53;21.05;;;11.00;99.90;;;11.33;78.54;100120.03;5071554;28;20521;-73
2021/04/29 03:05:25;;;;;;;39.60;21.55;;;11.20;99.90;;;11.50;78.71;100147.06;5070549;28;20328;-74
2021/04/29 03:07:54;;;;;;;37.38;20.13;;;11.30;99.90;;;11.52;78.51;100142.59;5071758;28;20040;-73
2021/04/29 03:10:22;;;;;;;35.75;20.80;;;11.30;99.90;;;11.54;78.29;100138.16;5071490;28;20049;-74
2021/04/29 03:12:50;;;;;;;38.85;21.55;;;11.30;99.90;;;11.47;78.23;100118.00;5071640;28;20072;-74
2021/04/29 03:15:18;;;;;;;34.47;21.15;;;11.30;99.90;;;11.49;78.17;100139.16;5070382;28;20110;-75
2021/04/29 03:17:45;;;;;;;42.90;20.13;;;11.30;99.90;;;11.54;77.91;100094.91;5074707;28;20045;-74
2021/04/29 03:20:33;;;;;;;38.08;21.13;;;11.30;99.90;;;11.32;77.78;100089.19;5074356;28;20136;-75
2021/04/29 03:23:01;;;;;;;35.83;19.27;;;11.20;99.90;;;11.39;78.22;100081.97;5075372;28;20131;-74
2021/04/29 03:25:28;;;;;;;34.53;19.55;;;11.20;99.90;;;11.42;77.90;100098.66;5074961;28;20052;-74
2021/04/29 03:27:56;;;;;;;33.53;18.58;;;11.20;99.90;;;11.41;78.00;100102.25;5075153;28;20443;-73
2021/04/29 03:30:23;;;;;;;38.50;19.23;;;11.20;99.90;;;11.39;77.79;100119.94;5075141;28;20055;-74
2021/04/29 03:32:51;;;;;;;37.83;19.15;;;11.10;99.90;;;11.50;77.76;100117.03;5075114;28;20390;-73
2021/04/29 03:35:19;;;;;;;39.67;20.05;;;11.20;99.90;;;11.38;77.91;100115.53;5074993;28;20523;-74
2021/04/29 03:37:47;;;;;;;38.38;20.20;;;11.10;99.90;;;11.22;77.70;100092.91;5074944;28;20124;-74
2021/04/29 03:40:15;;;;;;;39.40;20.33;;;11.10;99.90;;;11.34;77.53;100107.69;5074880;28;20056;-73
2021/04/29 03:42:43;;;;;;;34.50;19.55;;;11.10;99.90;;;11.28;77.65;100102.50;5074846;28;20040;-73
2021/04/29 03:45:11;;;;;;;31.77;19.77;;;11.10;99.90;;;11.23;77.78;100101.72;5074902;28;20140;-72
2021/04/29 03:47:39;;;;;;;33.75;20.02;;;11.00;99.90;;;11.17;77.65;100073.59;5074690;28;20048;-73
2021/04/29 03:50:08;;;;;;;37.08;20.83;;;11.10;99.90;;;11.25;77.81;100095.50;5074636;28;20083;-73
2021/04/29 03:52:35;;;;;;;36.75;20.50;;;11.00;99.90;;;11.25;77.81;100087.56;5074224;28;20506;-72
2021/04/29 03:55:05;;;;;;;37.60;19.73;;;11.00;99.90;;;11.24;77.76;100093.75;5074359;28;20045;-73
2021/04/29 03:57:32;;;;;;;31.23;19.42;;;11.00;99.90;;;11.01;77.81;100069.53;5074277;28;20129;-73
2021/04/29 04:00:00;;;;;;;33.40;20.13;;;10.90;99.90;;;10.56;77.92;99996.31;5074478;28;20174;-72
2021/04/29 04:02:27;;;;;;;36.22;20.25;;;10.90;99.90;;;11.16;78.17;100093.03;5074493;28;20052;-72
2021/04/29 04:04:54;;;;;;;40.85;20.80;;;10.90;99.90;;;10.99;78.21;100097.78;5074458;28;20049;-75
2021/04/29 04:07:22;;;;;;;37.55;20.77;;;10.80;99.90;;;11.08;78.37;100099.34;5074500;28;20059;-71
2021/04/29 04:09:49;;;;;;;33.85;19.52;;;10.80;99.90;;;11.05;78.59;100096.78;5089451;28;20044;-71
2021/04/29 04:12:17;;;;;;;38.03;21.60;;;10.80;99.90;;;10.95;78.40;100097.84;5074415;28;20052;-71
2021/04/29 04:14:45;;;;;;;40.30;21.92;;;10.70;99.90;;;11.06;78.22;100099.41;5074462;28;20053;-71
2021/04/29 04:17:13;;;;;;;35.60;21.42;;;10.80;99.90;;;11.12;78.20;100098.41;5073762;28;20050;-70
2021/04/29 04:19:40;;;;;;;36.58;21.23;;;10.80;99.90;;;11.03;78.17;100094.19;5072945;28;20409;-72
2021/04/29 04:22:08;;;;;;;37.97;21.25;;;10.80;99.90;;;11.06;78.49;100090.56;5073879;28;20049;-70
2021/04/29 04:24:36;;;;;;;40.13;21.63;;;10.80;99.90;;;11.00;78.56;100088.91;5074098;28;20041;-72
2021/04/29 04:27:04;;;;;;;35.92;20.17;;;10.80;99.90;;;11.04;78.88;100095.91;5073672;28;20481;-72
2021/04/29 04:29:36;;;;;;;38.25;21.15;;;10.80;99.90;;;11.07;79.31;100092.34;5089005;28;20059;-72
2021/04/29 04:32:05;;;;;;;40.50;21.15;;;10.80;99.90;;;11.07;79.20;100069.38;5073648;28;20390;-72
2021/04/29 04:34:32;;;;;;;41.28;20.30;;;10.90;99.90;;;11.21;78.83;100095.56;5074046;28;20048;-71
2021/04/29 04:37:00;;;;;;;44.05;20.15;;;11.00;99.90;;;11.09;79.14;100099.31;5073643;28;20036;-71
2021/04/29 04:39:28;;;;;;;41.78;19.40;;;10.90;99.90;;;11.14;78.93;100089.53;5073621;28;20070;-70
2021/04/29 04:41:55;;;;;;;46.50;20.45;;;10.90;99.90;;;11.07;79.35;100095.84;5072503;28;20040;-72
2021/04/29 04:44:23;;;;;;;47.10;19.38;;;10.80;99.90;;;11.10;79.25;100095.78;5073692;28;20052;-72
2021/04/29 04:46:55;;;;;;;48.03;21.20;;;10.90;99.90;;;11.04;79.24;100095.91;5073613;28;20436;-72
2021/04/29 04:49:23;;;;;;;42.40;19.23;;;10.80;99.90;;;10.89;79.13;100086.50;5073593;28;20039;-72
2021/04/29 04:51:51;;;;;;;43.47;19.80;;;10.70;99.90;;;10.91;79.53;100086.47;5073448;28;20106;-72
2021/04/29 04:54:20;;;;;;;43.17;20.88;;;10.70;99.90;;;10.89;79.27;100064.44;5073590;28;20052;-73
2021/04/29 04:56:47;;;;;;;42.97;19.50;;;10.70;99.90;;;10.92;79.20;100084.69;5072980;28;20052;-73
2021/04/29 04:59:15;;;;;;;47.20;20.08;;;10.70;99.90;;;10.95;78.88;100085.50;5073063;28;20539;-72
2021/04/29 05:01:42;;;;;;;40.72;19.52;;;10.70;99.90;;;10.96;78.50;100092.53;5073324;28;20060;-73
2021/04/29 05:04:10;;;;;;;47.58;18.30;;;10.70;99.90;;;11.04;78.49;100087.09;5073077;28;20036;-74
2021/04/29 05:06:38;;;;;;;45.80;20.40;;;10.70;99.90;;;11.01;78.46;100082.75;5071780;28;20060;-73
2021/04/29 05:09:06;;;;;;;40.85;20.15;;;10.80;99.90;;;10.83;78.16;100040.75;5071864;28;20480;-72
2021/04/29 05:11:34;;;;;;;36.28;18.88;;;10.80;99.90;;;11.12;77.88;100079.88;5073163;28;20048;-72
2021/04/29 05:14:01;;;;;;;41.00;19.63;;;10.90;99.90;;;11.08;78.04;100078.19;5072972;28;20082;-72
2021/04/29 05:16:29;;;;;;;43.05;19.45;;;10.90;99.90;;;11.03;78.00;100070.38;5072677;28;20497;-72
2021/04/29 05:18:56;;;;;;;36.75;17.63;;;10.80;99.90;;;11.08;78.24;100076.44;5071243;28;20094;-72
2021/04/29 05:21:24;;;;;;;34.88;18.10;;;10.80;99.90;;;11.04;77.87;100061.50;5072712;28;20052;-73
2021/04/29 05:23:52;;;;;;;41.25;18.17;;;10.80;99.90;;;11.13;78.04;100076.34;5072600;28;20054;-73
2021/04/29 05:26:19;;;;;;;38.97;18.45;;;10.90;99.90;;;11.11;77.90;100075.50;5072739;28;20048;-73
2021/04/29 05:28:47;;;;;;;39.10;18.65;;;10.90;99.90;;;11.06;77.19;100070.28;5072873;28;20173;-72
2021/04/29 05:31:16;;;;;;;30.65;18.05;;;10.90;99.90;;;11.08;76.83;100073.78;5072839;28;20390;-72
2021/04/29 05:33:43;;;;;;;39.53;19.30;;;10.90;99.90;;;10.96;76.63;100062.53;5071473;28;20383;-73
2021/04/29 05:36:10;;;;;;;40.75;18.67;;;10.80;99.90;;;10.93;77.34;100070.56;5072552;28;20060;-73
2021/04/29 05:38:38;;;;;;;38.92;19.30;;;10.70;99.90;;;10.90;77.04;100067.06;5072515;28;20166;-72
2021/04/29 05:41:06;;;;;;;35.78;19.20;;;10.70;99.90;;;10.80;77.03;100061.97;5071731;28;20055;-73
2021/04/29 05:43:33;;;;;;;36.10;18.75;;;10.60;99.90;;;10.97;76.72;100080.19;5072839;28;20040;-72
2021/04/29 05:46:01;;;;;;;31.25;18.00;;;10.70;99.90;;;10.92;76.38;100082.06;5072507;28;20115;-72
2021/04/29 05:48:29;;;;;;;33.55;19.13;;;10.70;99.90;;;10.98;76.12;100082.78;5072404;28;20379;-72
2021/04/29 05:50:57;;;;;;;37.20;19.08;;;10.80;99.90;;;11.03;75.72;100088.88;5072275;28;20041;-72
2021/04/29 05:53:25;;;;;;;39.72;20.23;;;10.80;99.90;;;11.02;75.23;100100.34;5072290;28;20063;-72
2021/04/29 05:55:54;;;;;;;32.30;20.05;;;10.80;99.90;;;11.03;75.40;100093.28;5072486;28;20075;-73
2021/04/29 05:58:21;;;;;;;35.65;20.13;;;10.80;99.90;;;10.97;74.75;100098.69;5071878;28;20543;-72
2021/04/29 06:00:49;;;;;;;33.92;20.58;;;10.80;99.90;;;10.99;74.65;100097.78;5072423;28;20149;-73
2021/04/29 06:03:16;;;;;;;34.78;21.17;;;10.80;99.90;;;10.86;74.87;100101.53;5072427;28;20040;-72
2021/04/29 06:05:44;;;;;;;34.78;20.40;;;10.70;99.90;;;10.93;74.83;100097.88;5072071;28;20497;-72
2021/04/29 06:08:11;;;;;;;34.50;21.02;;;10.70;99.90;;;10.85;74.78;100099.78;5072141;28;20127;-72
2021/04/29 06:10:38;;;;;;;29.92;20.33;;;10.60;99.90;;;10.78;74.20;100117.53;5072136;28;20052;-72
2021/04/29 06:13:07;;;;;;;31.85;18.95;;;10.60;99.90;;;10.84;74.07;100114.78;5071971;28;20478;-73
2021/04/29 06:15:34;;;;;;;33.42;19.88;;;10.60;99.90;;;10.90;74.29;100114.69;5071995;28;20037;-72
2021/04/29 06:18:03;;;;;;;31.60;20.10;;;10.70;99.90;;;10.98;73.81;100124.25;5071928;28;20484;-73
2021/04/29 06:20:31;;;;;;;36.38;20.77;;;10.70;99.90;;;10.90;73.46;100119.09;5072034;28;20041;-73
2021/04/29 06:22:58;;;;;;;34.60;20.33;;;10.70;99.90;;;10.90;72.79;100125.25;5072257;28;20087;-73
2021/04/29 06:25:26;;;;;;;36.30;20.95;;;10.70;99.90;;;10.81;73.06;100114.84;5070876;28;20059;-72
2021/04/29 06:27:53;;;;;;;34.90;20.33;;;10.70;99.90;;;10.83;72.72;100130.69;5072148;28;20041;-73
2021/04/29 06:30:22;;;;;;;29.15;19.58;;;10.60;99.90;;;10.81;72.78;100141.31;5071909;28;20051;-73
2021/04/29 06:32:49;;;;;;;28.17;20.23;;;10.60;99.90;;;10.74;72.73;100133.50;5072051;28;20040;-73
2021/04/29 06:35:17;;;;;;;37.78;19.58;;;10.60;99.90;;;10.77;72.44;100134.31;5072112;28;20417;-72
2021/04/29 06:37:44;;;;;;;27.33;19.85;;;10.60;99.90;;;10.71;72.42;100144.13;5072018;28;20044;-72
2021/04/29 06:40:14;;;;;;;33.13;21.40;;;10.50;99.90;;;10.77;72.38;100136.09;5072080;28;20048;-73
2021/04/29 06:42:41;;;;;;;31.15;19.80;;;10.60;99.90;;;10.69;72.82;100148.56;5072057;28;20045;-73
2021/04/29 06:45:11;;;;;;;31.20;20.67;;;10.50;99.90;;;10.73;72.59;100132.63;5071632;28;20048;-73
2021/04/29 06:47:39;;;;;;;36.83;19.70;;;10.60;99.90;;;10.67;72.23;100143.31;5072064;28;20131;-72
2021/04/29 06:50:10;;;;;;;40.67;20.05;;;10.50;99.90;;;10.69;72.74;100151.19;5071966;28;20080;-73
2021/04/29 06:52:38;;;;;;;36.13;20.40;;;10.50;99.90;;;10.64;72.33;100153.94;5074702;28;20080;-72
2021/04/29 06:55:06;;;;;;;32.95;19.52;;;10.50;99.90;;;10.60;73.28;100159.28;5075370;28;20060;-73
2021/04/29 06:57:34;;;;;;;40.13;21.48;;;10.40;99.90;;;10.42;73.51;100139.31;5075626;28;20523;-73
2021/04/29 07:00:01;;;;;;;37.92;21.13;;;10.30;99.90;;;10.48;73.42;100163.00;5075731;28;20398;-72
2021/04/29 07:02:28;;;;;;;35.08;20.55;;;10.30;99.90;;;10.42;73.53;100160.44;5075592;28;20070;-72
2021/04/29 07:05:04;;;;;;;35.53;20.38;;;10.20;99.90;;;10.54;73.49;100156.75;5074319;28;20052;-72
2021/04/29 07:07:32;;;;;;;36.63;20.80;;;10.30;99.90;;;10.59;73.28;100162.81;5075655;28;20158;-72
2021/04/29 07:09:59;;;;;;;33.38;20.67;;;10.40;99.90;;;10.61;73.07;100167.19;5075363;28;20059;-72
2021/04/29 07:12:26;;;;;;;30.65;19.40;;;10.40;99.90;;;10.63;72.72;100169.81;5075315;28;20046;-73
2021/04/29 07:14:54;;;;;;;33.63;18.80;;;10.40;99.90;;;10.68;73.51;100178.56;5075085;28;20147;-72
2021/04/29 07:17:21;;;;;;;38.05;21.08;;;10.50;99.90;;;10.51;72.37;100180.59;5075356;28;20106;-72
2021/04/29 07:19:49;;;;;;;34.28;21.30;;;10.30;99.90;;;10.51;72.81;100173.53;5075135;28;20052;-72
2021/04/29 07:22:17;;;;;;;27.45;20.13;;;10.30;99.90;;;10.45;73.21;100183.34;5075381;28;20082;-72
2021/04/29 07:24:45;;;;;;;31.33;20.90;;;10.20;99.90;;;10.46;74.02;100187.72;5075276;28;20048;-72
2021/04/29 07:27:12;;;;;;;30.88;20.65;;;10.20;99.90;;;10.40;73.89;100185.16;5073861;28;20040;-72
2021/04/29 07:29:39;;;;;;;30.48;20.58;;;10.20;99.90;;;10.40;74.73;100183.38;5075368;28;20053;-72
2021/04/29 07:32:07;;;;;;;35.33;21.48;;;10.20;99.90;;;10.51;74.42;100204.41;5075179;28;20060;-72
2021/04/29 07:34:35;;;;;;;30.90;19.83;;;10.30;99.90;;;10.40;74.97;100193.97;5074806;28;20063;-72
2021/04/29 07:37:04;;;;;;;35.65;21.55;;;10.20;99.90;;;10.50;74.51;100205.28;5074697;28;20562;-72
2021/04/29 07:39:33;;;;;;;32.72;20.73;;;10.20;99.90;;;10.47;74.46;100202.69;5075093;28;20041;-72
2021/04/29 07:42:01;;;;;;;34.85;20.70;;;10.20;99.90;;;10.54;74.50;100206.97;5107177;28;20110;-72
2021/04/29 07:44:28;;;;;;;37.40;21.08;;;10.30;99.90;;;10.58;74.52;100220.16;5074927;28;20051;-71
2021/04/29 07:46:58;;;;;;;32.47;21.15;;;10.30;99.90;;;10.32;75.62;100209.06;5075225;28;20119;-72
2021/04/29 07:49:26;;;;;;;32.38;20.33;;;10.20;99.90;;;10.17;76.01;100226.88;5074883;28;20045;-72
2021/04/29 07:51:54;;;;;;;31.65;20.25;;;10.00;99.90;;;10.29;75.85;100222.31;5074679;28;20057;-72
2021/04/29 07:54:22;;;;;;;31.33;19.63;;;10.10;99.90;;;10.27;75.62;100236.44;5074435;28;20441;-72
2021/04/29 07:56:50;;;;;;;30.38;21.20;;;10.10;99.90;;;10.15;75.59;100204.91;5074588;28;20082;-73
2021/04/29 07:59:18;;;;;;;30.42;20.75;;;10.10;99.90;;;10.31;75.41;100240.81;5074663;28;20072;-72
2021/04/29 08:01:46;;;;;;;32.33;21.05;;;10.10;99.90;;;10.19;74.84;100243.59;5073517;28;20045;-73
2021/04/29 08:04:13;;;;;;;37.08;21.80;;;10.00;99.90;;;10.09;74.95;100231.34;5073528;28;20047;-72
2021/04/29 08:06:42;;;;;;;34.67;21.00;;;9.90;99.90;;;10.17;75.11;100255.97;5074548;28;20041;-73
2021/04/29 08:09:09;;;;;;;34.72;21.23;;;10.00;99.90;;;10.09;75.47;100250.75;5073193;28;20052;-73
2021/04/29 08:11:37;;;;;;;34.72;22.67;;;9.90;99.90;;;9.92;75.64;100266.81;5074130;28;20044;-73
2021/04/29 08:14:05;;;;;;;30.58;21.42;;;9.80;99.90;;;10.02;74.86;100257.00;5074500;28;20110;-73
2021/04/29 08:16:33;;;;;;;32.15;20.77;;;9.80;99.90;;;9.91;75.30;100265.03;5074408;28;20133;-74
2021/04/29 08:19:01;;;;;;;34.75;22.00;;;9.80;99.90;;;9.81;75.21;100263.38;5074189;28;20159;-73
2021/04/29 08:21:47;;;;;;;34.38;22.13;;;9.70;99.90;;;9.81;75.75;100287.16;5074286;28;20040;-72
2021/04/29 08:24:14;;;;;;;34.17;21.45;;;9.60;99.90;;;9.87;75.38;100283.59;5074211;28;20055;-72
2021/04/29 08:26:42;;;;;;;29.98;20.63;;;9.60;99.90;;;9.83;75.08;100293.28;5074164;28;20060;-72
2021/04/29 08:29:10;;;;;;;26.98;19.60;;;9.70;99.90;;;9.81;75.12;100304.78;5074183;28;20106;-72
2021/04/29 08:31:39;;;;;;;31.80;21.38;;;9.60;99.90;;;9.88;75.12;100312.63;5074153;28;20094;-73
2021/04/29 08:34:07;;;;;;;35.72;21.83;;;9.70;99.90;;;9.76;75.42;100312.75;5073678;28;20405;-72
2021/04/29 08:36:34;;;;;;;31.73;21.67;;;9.50;99.90;;;9.68;75.41;100318.97;5073647;28;20159;-72
2021/04/29 08:39:04;;;;;;;28.55;20.67;;;9.50;99.90;;;9.42;76.47;100313.97;5072523;28;20071;-72
2021/04/29 08:41:33;;;;;;;35.35;22.45;;;9.30;99.90;;;9.28;76.51;100334.31;5073668;28;20049;-72
2021/04/29 08:44:01;;;;;;;29.40;22.00;;;9.10;99.90;;;9.17;76.86;100307.16;5073792;28;20067;-72
2021/04/29 08:46:30;;;;;;;28.38;22.33;;;9.20;99.90;;;9.33;77.01;100331.66;5073666;28;20521;-73
2021/04/29 08:48:59;;;;;;;31.33;21.88;;;9.20;99.90;;;9.35;77.11;100343.91;5073728;28;20094;-72
2021/04/29 08:51:28;;;;;;;34.65;20.73;;;9.10;99.90;;;9.05;77.54;100344.16;5073556;28;20102;-73
2021/04/29 08:53:56;;;;;;;30.48;21.30;;;9.10;99.90;;;9.07;77.97;100345.91;5073578;28;20040;-73
2021/04/29 08:56:25;;;;;;;31.95;22.10;;;8.90;99.90;;;9.20;77.96;100361.63;5073664;28;20044;-73
2021/04/29 08:58:54;;;;;;;35.03;23.25;;;9.00;99.90;;;9.29;77.60;100349.25;5073332;28;20060;-73
2021/04/29 09:01:23;;;;;;;29.83;21.80;;;9.10;99.90;;;9.11;77.58;100333.56;5073530;28;20076;-73
2021/04/29 09:03:52;;;;;;;31.35;21.83;;;9.00;99.90;;;9.19;77.99;100354.63;5073445;28;20032;-73
2021/04/29 09:06:31;;;;;;;33.08;22.60;;;9.00;99.90;;;9.16;78.44;100347.59;5073404;28;20048;-74
2021/04/29 09:08:59;;;;;;;30.63;21.27;;;9.10;99.90;;;9.13;79.12;100355.53;5073412;28;20494;-73
2021/04/29 09:11:26;;;;;;;28.75;21.30;;;9.00;99.90;;;9.38;78.72;100369.41;5073170;28;20117;-74
2021/04/29 09:13:56;;;;;;;32.50;21.50;;;9.10;99.90;;;9.42;78.34;100369.41;5072791;28;20143;-73
2021/04/29 09:16:25;;;;;;;31.85;23.05;;;9.20;99.90;;;9.31;79.14;100375.66;5073085;28;20044;-74
2021/04/29 09:18:54;;;;;;;36.65;23.27;;;9.10;99.90;;;9.52;78.55;100381.63;5072996;28;20123;-74
2021/04/29 09:21:21;;;;;;;26.48;20.70;;;9.30;99.90;;;9.36;78.68;100390.56;5071799;28;20071;-74
2021/04/29 09:23:51;;;;;;;30.30;20.60;;;9.20;99.90;;;9.20;78.86;100391.53;5071673;28;20041;-74
2021/04/29 09:26:20;;;;;;;29.63;21.00;;;9.10;99.90;;;9.41;79.13;100388.75;5073337;28;20059;-74
2021/04/29 09:28:50;;;;;;;33.28;22.15;;;9.20;99.90;;;9.25;79.37;100400.31;5072923;28;20157;-74
2021/04/29 09:31:20;;;;;;;33.58;23.20;;;9.10;99.90;;;9.09;79.95;100407.44;5072926;28;20060;-75
2021/04/29 09:33:50;;;;;;;30.42;21.85;;;8.90;99.90;;;9.22;80.37;100402.06;5072872;28;20052;-74
2021/04/29 09:36:24;;;;;;;32.40;23.08;;;9.00;99.90;;;9.28;80.54;100417.88;5072655;28;20041;-75
2021/04/29 09:38:54;;;;;;;32.90;21.90;;;9.00;99.90;;;9.24;80.38;100403.81;5071450;28;20048;-74
2021/04/29 09:41:24;;;;;;;34.55;23.05;;;9.00;99.90;;;9.35;80.54;100415.19;5072804;28;20048;-74
2021/04/29 09:43:53;;;;;;;33.85;22.63;;;9.10;99.90;;;9.27;79.85;100416.97;5072340;28;20427;-74
2021/04/29 09:46:20;;;;;;;35.35;22.75;;;9.10;99.90;;;9.55;80.05;100421.19;5072689;28;20327;-75
2021/04/29 09:48:49;;;;;;;32.70;22.40;;;9.30;99.90;;;9.44;81.04;100425.69;5072594;28;20164;-74
2021/04/29 09:51:19;;;;;;;33.95;20.48;;;9.20;99.90;;;9.26;81.37;100425.81;5072264;28;20052;-74
2021/04/29 09:53:50;;;;;;;30.98;22.27;;;9.10;99.90;;;9.44;81.30;100430.97;5072336;28;20485;-75
2021/04/29 09:56:20;;;;;;;38.67;21.33;;;9.10;99.90;;;9.47;81.06;100422.13;5072631;28;20040;-74
2021/04/29 09:58:50;;;;;;;37.05;21.75;;;9.10;99.90;;;9.28;80.47;100423.16;5072520;28;20474;-75
2021/04/29 10:01:17;;;;;;;33.40;20.67;;;9.10;99.90;;;9.40;81.77;100429.25;5072161;28;20521;-75
2021/04/29 10:03:45;;;;;;;31.77;20.58;;;9.10;99.90;;;8.95;81.46;100337.19;5071067;28;20052;-74
2021/04/29 10:06:15;;;;;;;32.72;19.73;;;9.20;99.90;;;9.01;81.95;100355.63;5072490;28;20048;-74
2021/04/29 10:08:43;;;;;;;36.60;19.17;;;9.20;99.90;;;9.28;81.52;100434.59;5072440;28;20055;-74